sensor_id;sensor_type;location;lat;lon;timestamp;P1;durP1;ratioP1;P2;durP2;ratioP2
13566;SDS011;6855;48.112;11.298;2022-08-11T00:00:58;3.10;;;2.40;;
13566;SDS011;6855;48.112;11.298;2022-08-11T00:03:26;5.23;;;2.40;;
13566;SDS011;6855;48.112;11.298;2022-08-11T00:05:54;2.80;;;2.50;;
13566;SDS011;6855;48.112;11.298;2022-08-11T00:08:22;4.37;;;2.77;;
13566;SDS011;6855;48.112;11.298;2022-08-11T00:10:51;3.30;;;3.00;;
13566;SDS011;6855;48.112;11.298;2022-08-11T00:13:21;2.90;;;2.60;;
13566;SDS011;6855;48.112;11.298;2022-08-11T00:15:48;6.67;;;3.10;;
13566;SDS011;6855;48.112;11.298;2022-08-11T00:18:16;4.03;;;2.77;;
13566;SDS011;6855;48.112;11.298;2022-08-11T00:20:44;5.50;;;3.27;;
13566;SDS011;6855;48.112;11.298;2022-08-11T00:23:12;4.30;;;2.50;;
13566;SDS011;6855;48.112;11.298;2022-08-11T00:25:41;5.27;;;2.37;;
13566;SDS011;6855;48.112;11.298;2022-08-11T00:30:52;2.70;;;2.50;;
13566;SDS011;6855;48.112;11.298;2022-08-11T00:33:20;4.00;;;3.00;;
13566;SDS011;6855;48.112;11.298;2022-08-11T00:35:48;3.10;;;2.80;;
13566;SDS011;6855;48.112;11.298;2022-08-11T00:38:16;4.53;;;2.73;;
13566;SDS011;6855;48.112;11.298;2022-08-11T00:40:49;2.87;;;2.60;;
13566;SDS011;6855;48.112;11.298;2022-08-11T00:43:19;2.97;;;2.53;;
13566;SDS011;6855;48.112;11.298;2022-08-11T00:46:06;4.63;;;2.70;;
13566;SDS011;6855;48.112;11.298;2022-08-11T00:48:35;4.03;;;2.70;;
13566;SDS011;6855;48.112;11.298;2022-08-11T00:51:09;7.67;;;2.90;;
13566;SDS011;6855;48.112;11.298;2022-08-11T00:53:44;2.93;;;2.53;;
13566;SDS011;6855;48.112;11.298;2022-08-11T00:56:42;4.43;;;2.97;;
13566;SDS011;6855;48.112;11.298;2022-08-11T00:59:17;8.90;;;2.90;;
13566;SDS011;6855;48.112;11.298;2022-08-11T01:01:54;5.60;;;2.83;;
13566;SDS011;6855;48.112;11.298;2022-08-11T01:10:13;4.50;;;2.70;;
13566;SDS011;6855;48.112;11.298;2022-08-11T01:12:52;4.03;;;2.63;;
13566;SDS011;6855;48.112;11.298;2022-08-11T01:21:07;3.20;;;2.77;;
13566;SDS011;6855;48.112;11.298;2022-08-11T01:23:55;3.67;;;2.53;;
13566;SDS011;6855;48.112;11.298;2022-08-11T01:26:50;2.93;;;2.63;;
13566;SDS011;6855;48.112;11.298;2022-08-11T01:35:11;3.83;;;2.60;;
13566;SDS011;6855;48.112;11.298;2022-08-11T01:40:37;3.03;;;2.83;;
13566;SDS011;6855;48.112;11.298;2022-08-11T01:46:14;6.50;;;3.00;;
13566;SDS011;6855;48.112;11.298;2022-08-11T01:48:55;5.57;;;2.70;;
13566;SDS011;6855;48.112;11.298;2022-08-11T01:51:26;2.63;;;2.43;;
13566;SDS011;6855;48.112;11.298;2022-08-11T01:53:59;10.20;;;2.83;;
13566;SDS011;6855;48.112;11.298;2022-08-11T01:56:31;3.80;;;2.50;;
13566;SDS011;6855;48.112;11.298;2022-08-11T01:59:05;4.90;;;2.97;;
13566;SDS011;6855;48.112;11.298;2022-08-11T02:01:40;10.63;;;2.87;;
13566;SDS011;6855;48.112;11.298;2022-08-11T02:04:16;3.30;;;3.00;;
13566;SDS011;6855;48.112;11.298;2022-08-11T02:06:47;6.43;;;2.77;;
13566;SDS011;6855;48.112;11.298;2022-08-11T02:09:28;7.40;;;3.20;;
13566;SDS011;6855;48.112;11.298;2022-08-11T02:12:02;5.53;;;3.03;;
13566;SDS011;6855;48.112;11.298;2022-08-11T02:14:30;4.67;;;2.90;;
13566;SDS011;6855;48.112;11.298;2022-08-11T02:17:11;3.63;;;3.10;;
13566;SDS011;6855;48.112;11.298;2022-08-11T02:19:48;3.33;;;3.03;;
13566;SDS011;6855;48.112;11.298;2022-08-11T02:22:38;3.67;;;3.10;;
13566;SDS011;6855;48.112;11.298;2022-08-11T02:25:27;3.63;;;3.10;;
13566;SDS011;6855;48.112;11.298;2022-08-11T02:28:01;12.27;;;3.23;;
13566;SDS011;6855;48.112;11.298;2022-08-11T02:30:33;4.03;;;2.90;;
13566;SDS011;6855;48.112;11.298;2022-08-11T02:33:07;4.93;;;2.87;;
13566;SDS011;6855;48.112;11.298;2022-08-11T02:35:54;5.13;;;3.43;;
13566;SDS011;6855;48.112;11.298;2022-08-11T02:38:25;4.50;;;2.93;;
13566;SDS011;6855;48.112;11.298;2022-08-11T02:40:57;6.17;;;3.53;;
13566;SDS011;6855;48.112;11.298;2022-08-11T02:43:27;5.67;;;3.23;;
13566;SDS011;6855;48.112;11.298;2022-08-11T02:45:59;6.70;;;3.17;;
13566;SDS011;6855;48.112;11.298;2022-08-11T02:48:29;5.30;;;3.20;;
13566;SDS011;6855;48.112;11.298;2022-08-11T02:51:18;9.00;;;3.23;;
13566;SDS011;6855;48.112;11.298;2022-08-11T02:53:53;4.90;;;2.80;;
13566;SDS011;6855;48.112;11.298;2022-08-11T02:56:26;3.40;;;3.10;;
13566;SDS011;6855;48.112;11.298;2022-08-11T02:58:58;4.13;;;3.73;;
13566;SDS011;6855;48.112;11.298;2022-08-11T03:01:49;5.80;;;3.10;;
13566;SDS011;6855;48.112;11.298;2022-08-11T03:04:19;5.47;;;2.83;;
13566;SDS011;6855;48.112;11.298;2022-08-11T03:06:49;3.47;;;3.00;;
13566;SDS011;6855;48.112;11.298;2022-08-11T03:09:21;3.70;;;3.40;;
13566;SDS011;6855;48.112;11.298;2022-08-11T03:11:52;4.70;;;3.23;;
13566;SDS011;6855;48.112;11.298;2022-08-11T03:14:42;5.83;;;3.23;;
13566;SDS011;6855;48.112;11.298;2022-08-11T03:17:31;6.37;;;3.40;;
13566;SDS011;6855;48.112;11.298;2022-08-11T03:20:05;3.33;;;3.03;;
13566;SDS011;6855;48.112;11.298;2022-08-11T03:22:36;3.10;;;2.80;;
13566;SDS011;6855;48.112;11.298;2022-08-11T03:25:18;4.00;;;3.57;;
13566;SDS011;6855;48.112;11.298;2022-08-11T03:27:57;5.63;;;3.83;;
13566;SDS011;6855;48.112;11.298;2022-08-11T03:30:30;4.30;;;3.60;;
13566;SDS011;6855;48.112;11.298;2022-08-11T03:33:04;3.53;;;3.23;;
13566;SDS011;6855;48.112;11.298;2022-08-11T03:35:54;4.03;;;3.43;;
13566;SDS011;6855;48.112;11.298;2022-08-11T03:38:25;7.50;;;3.53;;
13566;SDS011;6855;48.112;11.298;2022-08-11T03:41:03;12.53;;;3.60;;
13566;SDS011;6855;48.112;11.298;2022-08-11T03:43:58;4.53;;;3.27;;
13566;SDS011;6855;48.112;11.298;2022-08-11T03:46:35;4.70;;;3.23;;
13566;SDS011;6855;48.112;11.298;2022-08-11T03:49:13;3.10;;;2.80;;
13566;SDS011;6855;48.112;11.298;2022-08-11T03:51:46;3.63;;;3.20;;
13566;SDS011;6855;48.112;11.298;2022-08-11T03:54:19;8.20;;;3.60;;
13566;SDS011;6855;48.112;11.298;2022-08-11T03:57:13;4.10;;;2.93;;
13566;SDS011;6855;48.112;11.298;2022-08-11T04:02:45;6.27;;;3.13;;
13566;SDS011;6855;48.112;11.298;2022-08-11T04:05:26;3.33;;;3.03;;
13566;SDS011;6855;48.112;11.298;2022-08-11T04:16:40;5.70;;;3.60;;
13566;SDS011;6855;48.112;11.298;2022-08-11T04:19:19;4.17;;;3.30;;
13566;SDS011;6855;48.112;11.298;2022-08-11T04:22:13;4.77;;;3.37;;
13566;SDS011;6855;48.112;11.298;2022-08-11T04:27:55;4.33;;;3.40;;
13566;SDS011;6855;48.112;11.298;2022-08-11T04:30:26;3.43;;;3.13;;
13566;SDS011;6855;48.112;11.298;2022-08-11T04:35:46;5.70;;;3.63;;
13566;SDS011;6855;48.112;11.298;2022-08-11T04:38:35;3.77;;;3.37;;
13566;SDS011;6855;48.112;11.298;2022-08-11T04:41:19;4.03;;;3.37;;
13566;SDS011;6855;48.112;11.298;2022-08-11T04:49:27;5.63;;;3.60;;
13566;SDS011;6855;48.112;11.298;2022-08-11T04:55:39;5.13;;;3.50;;
13566;SDS011;6855;48.112;11.298;2022-08-11T04:58:43;7.93;;;4.50;;
13566;SDS011;6855;48.112;11.298;2022-08-11T05:01:31;11.63;;;4.97;;
13566;SDS011;6855;48.112;11.298;2022-08-11T05:04:13;9.03;;;4.10;;
13566;SDS011;6855;48.112;11.298;2022-08-11T05:09:52;8.60;;;4.17;;
13566;SDS011;6855;48.112;11.298;2022-08-11T05:12:29;5.43;;;4.67;;
13566;SDS011;6855;48.112;11.298;2022-08-11T05:14:57;7.53;;;4.20;;
13566;SDS011;6855;48.112;11.298;2022-08-11T05:17:44;4.10;;;3.57;;
13566;SDS011;6855;48.112;11.298;2022-08-11T05:20:29;6.00;;;3.80;;
13566;SDS011;6855;48.112;11.298;2022-08-11T05:23:14;4.97;;;4.30;;
13566;SDS011;6855;48.112;11.298;2022-08-11T05:26:00;15.90;;;4.00;;
13566;SDS011;6855;48.112;11.298;2022-08-11T05:28:51;4.43;;;3.30;;
13566;SDS011;6855;48.112;11.298;2022-08-11T05:31:37;5.70;;;4.00;;
13566;SDS011;6855;48.112;11.298;2022-08-11T05:34:23;4.60;;;3.80;;
13566;SDS011;6855;48.112;11.298;2022-08-11T05:37:10;4.23;;;3.50;;
13566;SDS011;6855;48.112;11.298;2022-08-11T05:39:45;6.77;;;3.90;;
13566;SDS011;6855;48.112;11.298;2022-08-11T05:42:32;4.97;;;4.17;;
13566;SDS011;6855;48.112;11.298;2022-08-11T05:45:19;11.80;;;4.53;;
13566;SDS011;6855;48.112;11.298;2022-08-11T05:48:05;5.30;;;4.07;;
13566;SDS011;6855;48.112;11.298;2022-08-11T05:50:51;9.47;;;4.60;;
13566;SDS011;6855;48.112;11.298;2022-08-11T05:53:42;12.93;;;5.17;;
13566;SDS011;6855;48.112;11.298;2022-08-11T05:56:28;6.37;;;4.33;;
13566;SDS011;6855;48.112;11.298;2022-08-11T05:58:55;6.70;;;4.40;;
13566;SDS011;6855;48.112;11.298;2022-08-11T06:01:25;6.63;;;3.80;;
13566;SDS011;6855;48.112;11.298;2022-08-11T06:03:55;6.40;;;3.70;;
13566;SDS011;6855;48.112;11.298;2022-08-11T06:06:54;7.07;;;4.50;;
13566;SDS011;6855;48.112;11.298;2022-08-11T06:09:31;4.00;;;3.60;;
13566;SDS011;6855;48.112;11.298;2022-08-11T06:12:00;4.07;;;3.57;;
13566;SDS011;6855;48.112;11.298;2022-08-11T06:14:28;9.40;;;4.37;;
13566;SDS011;6855;48.112;11.298;2022-08-11T06:16:58;4.90;;;3.60;;
13566;SDS011;6855;48.112;11.298;2022-08-11T06:19:32;5.23;;;4.37;;
13566;SDS011;6855;48.112;11.298;2022-08-11T06:22:01;5.87;;;3.90;;
13566;SDS011;6855;48.112;11.298;2022-08-11T06:24:29;6.53;;;4.10;;
13566;SDS011;6855;48.112;11.298;2022-08-11T06:26:57;6.17;;;4.33;;
13566;SDS011;6855;48.112;11.298;2022-08-11T06:29:25;7.90;;;4.23;;
13566;SDS011;6855;48.112;11.298;2022-08-11T06:31:54;7.40;;;4.27;;
13566;SDS011;6855;48.112;11.298;2022-08-11T06:34:27;4.87;;;4.00;;
13566;SDS011;6855;48.112;11.298;2022-08-11T06:36:59;10.60;;;4.50;;
13566;SDS011;6855;48.112;11.298;2022-08-11T06:39:31;7.40;;;4.10;;
13566;SDS011;6855;48.112;11.298;2022-08-11T06:42:04;11.90;;;4.53;;
13566;SDS011;6855;48.112;11.298;2022-08-11T06:44:32;5.77;;;3.93;;
13566;SDS011;6855;48.112;11.298;2022-08-11T06:47:06;7.80;;;3.60;;
13566;SDS011;6855;48.112;11.298;2022-08-11T06:49:35;4.37;;;3.27;;
13566;SDS011;6855;48.112;11.298;2022-08-11T06:52:27;4.33;;;3.37;;
13566;SDS011;6855;48.112;11.298;2022-08-11T06:54:55;4.27;;;3.10;;
13566;SDS011;6855;48.112;11.298;2022-08-11T06:57:28;4.80;;;3.37;;
13566;SDS011;6855;48.112;11.298;2022-08-11T07:00:14;4.23;;;3.60;;
13566;SDS011;6855;48.112;11.298;2022-08-11T07:02:56;6.17;;;3.87;;
13566;SDS011;6855;48.112;11.298;2022-08-11T07:05:28;6.20;;;3.80;;
13566;SDS011;6855;48.112;11.298;2022-08-11T07:08:13;4.17;;;3.77;;
13566;SDS011;6855;48.112;11.298;2022-08-11T07:11:02;5.37;;;3.83;;
13566;SDS011;6855;48.112;11.298;2022-08-11T07:13:51;3.93;;;3.60;;
13566;SDS011;6855;48.112;11.298;2022-08-11T07:16:38;4.33;;;3.47;;
13566;SDS011;6855;48.112;11.298;2022-08-11T07:19:07;7.53;;;3.73;;
13566;SDS011;6855;48.112;11.298;2022-08-11T07:21:55;8.47;;;3.57;;
13566;SDS011;6855;48.112;11.298;2022-08-11T07:24:41;4.50;;;3.10;;
13566;SDS011;6855;48.112;11.298;2022-08-11T07:27:29;4.03;;;3.57;;
13566;SDS011;6855;48.112;11.298;2022-08-11T07:30:15;4.40;;;3.27;;
13566;SDS011;6855;48.112;11.298;2022-08-11T07:32:44;3.73;;;3.07;;
13566;SDS011;6855;48.112;11.298;2022-08-11T07:35:14;3.70;;;3.23;;
13566;SDS011;6855;48.112;11.298;2022-08-11T07:37:45;7.37;;;4.17;;
13566;SDS011;6855;48.112;11.298;2022-08-11T07:40:13;4.53;;;3.40;;
13566;SDS011;6855;48.112;11.298;2022-08-11T07:42:41;10.10;;;3.77;;
13566;SDS011;6855;48.112;11.298;2022-08-11T07:45:10;3.83;;;3.40;;
13566;SDS011;6855;48.112;11.298;2022-08-11T07:47:56;5.03;;;3.57;;
13566;SDS011;6855;48.112;11.298;2022-08-11T07:50:41;5.10;;;3.50;;
13566;SDS011;6855;48.112;11.298;2022-08-11T07:53:28;3.37;;;3.07;;
13566;SDS011;6855;48.112;11.298;2022-08-11T07:55:56;6.73;;;3.50;;
13566;SDS011;6855;48.112;11.298;2022-08-11T07:58:24;8.60;;;4.10;;
13566;SDS011;6855;48.112;11.298;2022-08-11T08:01:10;9.43;;;3.50;;
13566;SDS011;6855;48.112;11.298;2022-08-11T08:03:55;5.50;;;3.60;;
13566;SDS011;6855;48.112;11.298;2022-08-11T08:06:42;3.60;;;3.30;;
13566;SDS011;6855;48.112;11.298;2022-08-11T08:09:29;4.50;;;3.80;;
13566;SDS011;6855;48.112;11.298;2022-08-11T08:12:17;3.83;;;3.53;;
13566;SDS011;6855;48.112;11.298;2022-08-11T08:15:05;4.50;;;2.97;;
13566;SDS011;6855;48.112;11.298;2022-08-11T08:17:50;4.80;;;3.90;;
13566;SDS011;6855;48.112;11.298;2022-08-11T08:20:22;4.00;;;3.50;;
13566;SDS011;6855;48.112;11.298;2022-08-11T08:22:50;6.63;;;3.50;;
13566;SDS011;6855;48.112;11.298;2022-08-11T08:25:23;4.27;;;3.90;;
13566;SDS011;6855;48.112;11.298;2022-08-11T08:27:51;4.10;;;3.70;;
13566;SDS011;6855;48.112;11.298;2022-08-11T08:30:19;4.00;;;3.67;;
13566;SDS011;6855;48.112;11.298;2022-08-11T08:33:04;7.53;;;3.73;;
13566;SDS011;6855;48.112;11.298;2022-08-11T08:35:31;4.03;;;3.67;;
13566;SDS011;6855;48.112;11.298;2022-08-11T08:37:59;4.23;;;3.93;;
13566;SDS011;6855;48.112;11.298;2022-08-11T08:40:28;4.37;;;3.70;;
13566;SDS011;6855;48.112;11.298;2022-08-11T08:42:56;4.10;;;3.77;;
13566;SDS011;6855;48.112;11.298;2022-08-11T08:45:24;4.70;;;3.33;;
13566;SDS011;6855;48.112;11.298;2022-08-11T08:47:57;7.93;;;4.27;;
13566;SDS011;6855;48.112;11.298;2022-08-11T08:50:26;4.80;;;3.80;;
13566;SDS011;6855;48.112;11.298;2022-08-11T08:53:16;5.57;;;3.90;;
13566;SDS011;6855;48.112;11.298;2022-08-11T08:55:47;3.97;;;3.57;;
13566;SDS011;6855;48.112;11.298;2022-08-11T08:58:15;14.07;;;4.20;;
13566;SDS011;6855;48.112;11.298;2022-08-11T09:00:45;4.47;;;4.07;;
13566;SDS011;6855;48.112;11.298;2022-08-11T09:03:13;4.37;;;3.97;;
13566;SDS011;6855;48.112;11.298;2022-08-11T09:05:40;4.07;;;3.77;;
13566;SDS011;6855;48.112;11.298;2022-08-11T09:08:07;5.27;;;3.60;;
13566;SDS011;6855;48.112;11.298;2022-08-11T09:10:35;7.03;;;3.90;;
13566;SDS011;6855;48.112;11.298;2022-08-11T09:13:05;5.77;;;3.83;;
13566;SDS011;6855;48.112;11.298;2022-08-11T09:15:33;4.03;;;3.70;;
13566;SDS011;6855;48.112;11.298;2022-08-11T09:18:04;4.40;;;4.10;;
13566;SDS011;6855;48.112;11.298;2022-08-11T09:20:33;4.50;;;3.60;;
13566;SDS011;6855;48.112;11.298;2022-08-11T09:23:03;4.07;;;3.50;;
13566;SDS011;6855;48.112;11.298;2022-08-11T09:25:49;4.17;;;3.53;;
13566;SDS011;6855;48.112;11.298;2022-08-11T09:28:35;4.33;;;3.93;;
13566;SDS011;6855;48.112;11.298;2022-08-11T09:31:03;3.57;;;3.27;;
13566;SDS011;6855;48.112;11.298;2022-08-11T09:33:32;4.00;;;3.30;;
13566;SDS011;6855;48.112;11.298;2022-08-11T09:36:00;8.50;;;3.90;;
13566;SDS011;6855;48.112;11.298;2022-08-11T09:38:49;4.30;;;3.50;;
13566;SDS011;6855;48.112;11.298;2022-08-11T09:41:34;4.30;;;3.83;;
13566;SDS011;6855;48.112;11.298;2022-08-11T09:44:05;4.20;;;3.90;;
13566;SDS011;6855;48.112;11.298;2022-08-11T09:47:04;5.30;;;3.90;;
13566;SDS011;6855;48.112;11.298;2022-08-11T09:49:37;3.80;;;3.50;;
13566;SDS011;6855;48.112;11.298;2022-08-11T09:52:04;5.13;;;3.60;;
13566;SDS011;6855;48.112;11.298;2022-08-11T09:54:33;4.93;;;4.03;;
13566;SDS011;6855;48.112;11.298;2022-08-11T09:57:00;3.60;;;3.30;;
13566;SDS011;6855;48.112;11.298;2022-08-11T09:59:49;4.33;;;3.77;;
13566;SDS011;6855;48.112;11.298;2022-08-11T10:02:21;5.10;;;3.70;;
13566;SDS011;6855;48.112;11.298;2022-08-11T10:04:49;6.33;;;3.90;;
13566;SDS011;6855;48.112;11.298;2022-08-11T10:07:38;5.30;;;3.60;;
13566;SDS011;6855;48.112;11.298;2022-08-11T10:10:04;7.37;;;3.50;;
13566;SDS011;6855;48.112;11.298;2022-08-11T10:12:33;4.40;;;3.73;;
13566;SDS011;6855;48.112;11.298;2022-08-11T10:15:03;3.30;;;3.10;;
13566;SDS011;6855;48.112;11.298;2022-08-11T10:17:52;3.60;;;3.10;;
13566;SDS011;6855;48.112;11.298;2022-08-11T10:20:33;4.43;;;3.17;;
13566;SDS011;6855;48.112;11.298;2022-08-11T10:23:01;6.10;;;3.03;;
13566;SDS011;6855;48.112;11.298;2022-08-11T10:25:49;4.20;;;3.63;;
13566;SDS011;6855;48.112;11.298;2022-08-11T10:28:34;4.87;;;3.80;;
13566;SDS011;6855;48.112;11.298;2022-08-11T10:31:04;4.30;;;3.90;;
13566;SDS011;6855;48.112;11.298;2022-08-11T10:33:49;4.47;;;3.40;;
13566;SDS011;6855;48.112;11.298;2022-08-11T10:36:25;3.70;;;3.40;;
13566;SDS011;6855;48.112;11.298;2022-08-11T10:38:53;3.50;;;3.20;;
13566;SDS011;6855;48.112;11.298;2022-08-11T10:41:21;7.93;;;3.60;;
13566;SDS011;6855;48.112;11.298;2022-08-11T10:44:06;4.00;;;3.70;;
13566;SDS011;6855;48.112;11.298;2022-08-11T10:46:36;5.00;;;3.40;;
13566;SDS011;6855;48.112;11.298;2022-08-11T10:49:29;5.33;;;4.10;;
13566;SDS011;6855;48.112;11.298;2022-08-11T10:51:57;4.30;;;4.00;;
13566;SDS011;6855;48.112;11.298;2022-08-11T10:54:42;5.93;;;3.80;;
13566;SDS011;6855;48.112;11.298;2022-08-11T10:57:28;3.70;;;3.40;;
13566;SDS011;6855;48.112;11.298;2022-08-11T11:00:13;6.00;;;3.97;;
13566;SDS011;6855;48.112;11.298;2022-08-11T11:02:43;3.97;;;3.33;;
13566;SDS011;6855;48.112;11.298;2022-08-11T11:05:11;5.37;;;3.03;;
13566;SDS011;6855;48.112;11.298;2022-08-11T11:07:43;3.43;;;3.13;;
13566;SDS011;6855;48.112;11.298;2022-08-11T11:10:13;5.30;;;2.90;;
13566;SDS011;6855;48.112;11.298;2022-08-11T11:12:42;5.00;;;3.10;;
13566;SDS011;6855;48.112;11.298;2022-08-11T11:15:28;5.47;;;3.10;;
13566;SDS011;6855;48.112;11.298;2022-08-11T11:18:19;10.23;;;3.60;;
13566;SDS011;6855;48.112;11.298;2022-08-11T11:20:47;3.40;;;3.20;;
13566;SDS011;6855;48.112;11.298;2022-08-11T11:23:17;5.73;;;3.23;;
13566;SDS011;6855;48.112;11.298;2022-08-11T11:31:26;6.53;;;2.93;;
13566;SDS011;6855;48.112;11.298;2022-08-11T11:34:11;3.40;;;3.10;;
13566;SDS011;6855;48.112;11.298;2022-08-11T11:36:40;3.90;;;3.13;;
13566;SDS011;6855;48.112;11.298;2022-08-11T11:39:11;3.23;;;2.93;;
13566;SDS011;6855;48.112;11.298;2022-08-11T11:41:38;4.90;;;3.50;;
13566;SDS011;6855;48.112;11.298;2022-08-11T11:44:07;3.87;;;3.17;;
13566;SDS011;6855;48.112;11.298;2022-08-11T11:46:37;4.43;;;3.10;;
13566;SDS011;6855;48.112;11.298;2022-08-11T11:49:05;4.83;;;3.00;;
13566;SDS011;6855;48.112;11.298;2022-08-11T11:51:35;4.47;;;3.03;;
13566;SDS011;6855;48.112;11.298;2022-08-11T11:54:03;3.57;;;3.27;;
13566;SDS011;6855;48.112;11.298;2022-08-11T11:56:30;4.80;;;3.20;;
13566;SDS011;6855;48.112;11.298;2022-08-11T11:58:57;5.60;;;3.23;;
13566;SDS011;6855;48.112;11.298;2022-08-11T12:01:42;3.57;;;3.13;;
13566;SDS011;6855;48.112;11.298;2022-08-11T12:04:11;3.40;;;3.10;;
13566;SDS011;6855;48.112;11.298;2022-08-11T12:06:44;3.30;;;2.77;;
13566;SDS011;6855;48.112;11.298;2022-08-11T12:09:11;4.10;;;3.27;;
13566;SDS011;6855;48.112;11.298;2022-08-11T12:11:42;9.70;;;3.20;;
13566;SDS011;6855;48.112;11.298;2022-08-11T12:14:31;4.17;;;3.03;;
13566;SDS011;6855;48.112;11.298;2022-08-11T12:16:58;6.90;;;3.30;;
13566;SDS011;6855;48.112;11.298;2022-08-11T12:19:26;3.60;;;2.93;;
13566;SDS011;6855;48.112;11.298;2022-08-11T12:21:56;4.30;;;3.47;;
13566;SDS011;6855;48.112;11.298;2022-08-11T12:24:41;3.93;;;2.77;;
13566;SDS011;6855;48.112;11.298;2022-08-11T12:27:26;3.40;;;3.20;;
13566;SDS011;6855;48.112;11.298;2022-08-11T12:29:54;4.53;;;3.07;;
13566;SDS011;6855;48.112;11.298;2022-08-11T12:32:23;3.37;;;2.70;;
13566;SDS011;6855;48.112;11.298;2022-08-11T12:34:50;2.87;;;2.67;;
13566;SDS011;6855;48.112;11.298;2022-08-11T12:37:24;6.23;;;3.43;;
13566;SDS011;6855;48.112;11.298;2022-08-11T12:39:55;3.50;;;3.20;;
13566;SDS011;6855;48.112;11.298;2022-08-11T12:42:43;5.20;;;2.87;;
13566;SDS011;6855;48.112;11.298;2022-08-11T12:45:29;3.80;;;3.50;;
13566;SDS011;6855;48.112;11.298;2022-08-11T12:48:00;6.70;;;4.00;;
13566;SDS011;6855;48.112;11.298;2022-08-11T12:50:46;4.10;;;3.60;;
13566;SDS011;6855;48.112;11.298;2022-08-11T12:53:35;7.37;;;3.50;;
13566;SDS011;6855;48.112;11.298;2022-08-11T12:56:04;4.13;;;3.20;;
13566;SDS011;6855;48.112;11.298;2022-08-11T12:58:51;3.30;;;3.10;;
13566;SDS011;6855;48.112;11.298;2022-08-11T13:01:32;3.20;;;3.00;;
13566;SDS011;6855;48.112;11.298;2022-08-11T13:04:17;3.90;;;3.50;;
13566;SDS011;6855;48.112;11.298;2022-08-11T13:07:02;3.20;;;2.90;;
13566;SDS011;6855;48.112;11.298;2022-08-11T13:09:31;5.67;;;3.60;;
13566;SDS011;6855;48.112;11.298;2022-08-11T13:11:58;3.60;;;3.30;;
13566;SDS011;6855;48.112;11.298;2022-08-11T13:14:42;4.50;;;3.40;;
13566;SDS011;6855;48.112;11.298;2022-08-11T13:17:10;3.73;;;3.43;;
13566;SDS011;6855;48.112;11.298;2022-08-11T13:19:47;4.93;;;3.20;;
13566;SDS011;6855;48.112;11.298;2022-08-11T13:22:14;3.80;;;3.50;;
13566;SDS011;6855;48.112;11.298;2022-08-11T13:24:44;4.13;;;3.20;;
13566;SDS011;6855;48.112;11.298;2022-08-11T13:27:12;5.00;;;2.93;;
13566;SDS011;6855;48.112;11.298;2022-08-11T13:29:41;3.87;;;2.63;;
13566;SDS011;6855;48.112;11.298;2022-08-11T13:32:11;3.70;;;3.40;;
13566;SDS011;6855;48.112;11.298;2022-08-11T13:34:40;3.40;;;3.20;;
13566;SDS011;6855;48.112;11.298;2022-08-11T13:37:08;6.73;;;3.37;;
13566;SDS011;6855;48.112;11.298;2022-08-11T13:39:36;7.33;;;3.20;;
13566;SDS011;6855;48.112;11.298;2022-08-11T13:42:05;3.43;;;3.13;;
13566;SDS011;6855;48.112;11.298;2022-08-11T13:44:33;4.63;;;3.00;;
13566;SDS011;6855;48.112;11.298;2022-08-11T13:47:02;3.40;;;3.00;;
13566;SDS011;6855;48.112;11.298;2022-08-11T13:49:29;3.87;;;3.00;;
13566;SDS011;6855;48.112;11.298;2022-08-11T13:51:57;4.73;;;3.50;;
13566;SDS011;6855;48.112;11.298;2022-08-11T13:54:25;3.33;;;3.03;;
13566;SDS011;6855;48.112;11.298;2022-08-11T13:56:54;4.60;;;2.87;;
13566;SDS011;6855;48.112;11.298;2022-08-11T13:59:24;3.30;;;3.07;;
13566;SDS011;6855;48.112;11.298;2022-08-11T14:01:52;3.20;;;2.90;;
13566;SDS011;6855;48.112;11.298;2022-08-11T14:04:22;3.40;;;2.80;;
13566;SDS011;6855;48.112;11.298;2022-08-11T14:06:52;3.20;;;2.83;;
13566;SDS011;6855;48.112;11.298;2022-08-11T14:09:20;7.00;;;3.80;;
13566;SDS011;6855;48.112;11.298;2022-08-11T14:11:48;3.97;;;3.67;;
13566;SDS011;6855;48.112;11.298;2022-08-11T14:14:35;4.87;;;4.40;;
13566;SDS011;6855;48.112;11.298;2022-08-11T14:17:03;3.83;;;3.60;;
13566;SDS011;6855;48.112;11.298;2022-08-11T14:19:34;3.60;;;3.30;;
13566;SDS011;6855;48.112;11.298;2022-08-11T14:22:03;6.53;;;3.10;;
13566;SDS011;6855;48.112;11.298;2022-08-11T14:24:33;5.10;;;3.20;;
13566;SDS011;6855;48.112;11.298;2022-08-11T14:27:01;5.43;;;2.83;;
13566;SDS011;6855;48.112;11.298;2022-08-11T14:29:28;3.17;;;2.87;;
13566;SDS011;6855;48.112;11.298;2022-08-11T14:32:00;5.63;;;3.13;;
13566;SDS011;6855;48.112;11.298;2022-08-11T14:34:28;3.40;;;3.20;;
13566;SDS011;6855;48.112;11.298;2022-08-11T14:36:57;5.60;;;3.57;;
13566;SDS011;6855;48.112;11.298;2022-08-11T14:39:25;3.43;;;2.87;;
13566;SDS011;6855;48.112;11.298;2022-08-11T14:41:53;4.10;;;3.37;;
13566;SDS011;6855;48.112;11.298;2022-08-11T14:44:42;3.87;;;3.43;;
13566;SDS011;6855;48.112;11.298;2022-08-11T14:47:44;8.00;;;4.10;;
13566;SDS011;6855;48.112;11.298;2022-08-11T14:50:14;3.00;;;2.80;;
13566;SDS011;6855;48.112;11.298;2022-08-11T14:52:44;4.17;;;3.03;;
13566;SDS011;6855;48.112;11.298;2022-08-11T14:55:13;5.50;;;3.00;;
13566;SDS011;6855;48.112;11.298;2022-08-11T14:57:58;2.90;;;2.70;;
13566;SDS011;6855;48.112;11.298;2022-08-11T15:00:26;3.10;;;2.90;;
13566;SDS011;6855;48.112;11.298;2022-08-11T15:02:55;3.20;;;3.00;;
13566;SDS011;6855;48.112;11.298;2022-08-11T15:05:34;3.60;;;3.30;;
13566;SDS011;6855;48.112;11.298;2022-08-11T15:08:02;8.17;;;3.10;;
13566;SDS011;6855;48.112;11.298;2022-08-11T15:10:29;3.50;;;3.17;;
13566;SDS011;6855;48.112;11.298;2022-08-11T15:12:57;3.27;;;2.97;;
13566;SDS011;6855;48.112;11.298;2022-08-11T15:15:24;3.40;;;2.70;;
13566;SDS011;6855;48.112;11.298;2022-08-11T15:18:11;3.33;;;2.57;;
13566;SDS011;6855;48.112;11.298;2022-08-11T15:20:40;2.87;;;2.63;;
13566;SDS011;6855;48.112;11.298;2022-08-11T15:23:24;3.00;;;2.80;;
13566;SDS011;6855;48.112;11.298;2022-08-11T15:26:10;4.07;;;3.27;;
13566;SDS011;6855;48.112;11.298;2022-08-11T15:28:39;3.33;;;3.13;;
13566;SDS011;6855;48.112;11.298;2022-08-11T15:31:26;5.40;;;2.80;;
13566;SDS011;6855;48.112;11.298;2022-08-11T15:34:13;2.93;;;2.60;;
13566;SDS011;6855;48.112;11.298;2022-08-11T15:37:00;2.77;;;2.57;;
13566;SDS011;6855;48.112;11.298;2022-08-11T15:39:46;3.50;;;2.70;;
13566;SDS011;6855;48.112;11.298;2022-08-11T15:42:33;2.87;;;2.50;;
13566;SDS011;6855;48.112;11.298;2022-08-11T15:45:20;4.63;;;3.03;;
13566;SDS011;6855;48.112;11.298;2022-08-11T15:48:06;3.00;;;2.63;;
13566;SDS011;6855;48.112;11.298;2022-08-11T15:50:37;3.97;;;3.30;;
13566;SDS011;6855;48.112;11.298;2022-08-11T15:53:05;2.77;;;2.57;;
13566;SDS011;6855;48.112;11.298;2022-08-11T15:55:35;2.53;;;2.33;;
13566;SDS011;6855;48.112;11.298;2022-08-11T15:58:05;2.60;;;2.10;;
13566;SDS011;6855;48.112;11.298;2022-08-11T16:00:50;2.80;;;2.30;;
13566;SDS011;6855;48.112;11.298;2022-08-11T16:03:40;2.63;;;2.43;;
13566;SDS011;6855;48.112;11.298;2022-08-11T16:06:26;3.87;;;2.50;;
13566;SDS011;6855;48.112;11.298;2022-08-11T16:08:54;3.70;;;2.70;;
13566;SDS011;6855;48.112;11.298;2022-08-11T16:11:23;3.77;;;2.63;;
13566;SDS011;6855;48.112;11.298;2022-08-11T16:13:52;3.00;;;2.70;;
13566;SDS011;6855;48.112;11.298;2022-08-11T16:16:37;3.00;;;2.80;;
13566;SDS011;6855;48.112;11.298;2022-08-11T16:19:05;2.90;;;2.70;;
13566;SDS011;6855;48.112;11.298;2022-08-11T16:21:36;3.03;;;2.80;;
13566;SDS011;6855;48.112;11.298;2022-08-11T16:24:08;3.23;;;2.93;;
13566;SDS011;6855;48.112;11.298;2022-08-11T16:26:38;2.90;;;2.70;;
13566;SDS011;6855;48.112;11.298;2022-08-11T16:29:07;3.20;;;3.00;;
13566;SDS011;6855;48.112;11.298;2022-08-11T16:31:36;3.60;;;2.90;;
13566;SDS011;6855;48.112;11.298;2022-08-11T16:34:04;3.20;;;3.00;;
13566;SDS011;6855;48.112;11.298;2022-08-11T16:36:54;3.20;;;2.93;;
13566;SDS011;6855;48.112;11.298;2022-08-11T16:39:44;2.90;;;2.70;;